GW1795 Weather Reports


time (UTC)temp
C
wind
direction
speed
KPH
gust
KPH
rain 1hr
cm
rain 24hr
cm
rain mn
cm
humidity
%
barometer
mb
20240614133725 23 256 3.2 8.0 0.00 0.00 0.00 69 1015.4
20240614133223 23 257 3.2 8.0 0.00 0.00 0.00 68 1015.4
20240614132720 22 320 6.4 9.7 0.00 0.00 0.00 69 1015.4
20240614132220 22 315 4.8 8.0 0.00 0.00 0.00 68 1015.4
20240614131718 22 341 6.4 8.0 0.00 0.00 0.00 68 1015.2
20240614131218 22 324 4.8 4.8 0.00 0.00 0.00 69 1015.1
20240614130716 22 317 4.8 9.7 0.00 0.00 0.00 68 1015.2
20240614130212 22 298 4.8 4.8 0.00 0.00 0.00 69 1015.1
20240614125710 21 267 0.0 1.6 0.00 0.00 0.00 72 1015.4
20240614125209 21 323 3.2 4.8 0.00 0.00 0.00 71 1015.3
20240614124702 21 315 4.8 8.0 0.00 0.00 0.00 72 1015.1
20240614124200 21 310 8.0 9.7 0.00 0.00 0.00 72 1015.2
20240614123658 21 311 8.0 9.7 0.00 0.00 0.00 73 1015.4
20240614123157 21 336 4.8 9.7 0.00 0.00 0.00 72 1015.5
20240614122656 21 253 4.8 12.9 0.00 0.00 0.00 73 1015.4
20240614122154 21 316 4.8 4.8 0.00 0.00 0.00 74 1015.3
20240614121652 21 258 3.2 8.0 0.00 0.00 0.00 74 1015.5
20240614121150 20 268 0.0 1.6 0.00 0.00 0.00 76 1015.4
20240614120649 21 328 6.4 8.0 0.00 0.00 0.00 76 1015.2
20240614120148 20 323 9.7 12.9 0.00 0.00 0.00 79 1015.4
20240614115647 19 307 3.2 3.2 0.00 0.00 0.00 82 1015.3
20240614115145 20 329 0.0 1.6 0.00 0.00 0.00 84 1015.2
20240614114644 19 301 0.0 3.2 0.00 0.00 0.00 86 1015.1
20240614114142 19 306 1.6 1.6 0.00 0.00 0.00 85 1015.3
20240614113640 19 293 1.6 1.6 0.00 0.00 0.00 86 1015.3
20240614113138 19 262 0.0 0.0 0.00 0.00 0.00 86 1015.3
20240614112635 19 250 0.0 0.0 0.00 0.00 0.00 87 1015.4
20240614112135 19 249 0.0 0.0 0.00 0.00 0.00 87 1015.3
20240614111633 19 249 0.0 0.0 0.00 0.00 0.00 87 1015.3
20240614111132 19 250 0.0 0.0 0.00 0.00 0.00 86 1015.2
20240614110631 20 250 0.0 0.0 0.00 0.00 0.00 86 1015.4
20240614110131 20 250 0.0 0.0 0.00 0.00 0.00 86 1015.0
20240614105624 20 248 0.0 0.0 0.00 0.00 0.00 85 1015.0
20240614105123 20 197 1.6 3.2 0.00 0.00 0.00 85 1014.8
20240614104621 20 218 1.6 3.2 0.00 0.00 0.00 85 1014.7
20240614104121 20 235 0.0 3.2 0.00 0.00 0.00 84 1014.7
20240614103621 20 224 1.6 1.6 0.00 0.00 0.00 84 1014.5
20240614103120 20 218 3.2 3.2 0.00 0.00 0.00 83 1014.8
20240614102619 20 280 0.0 0.0 0.00 0.00 0.00 82 1014.7
20240614102117 20 251 0.0 0.0 0.00 0.00 0.00 81 1014.7
20240614101616 20 256 0.0 1.6 0.00 0.00 0.00 81 1014.5
20240614101114 20 261 0.0 1.6 0.00 0.00 0.00 80 1014.7
20240614100612 20 241 1.6 3.2 0.00 0.00 0.00 79 1014.8
20240614100112 20 348 1.6 8.0 0.00 0.00 0.00 77 1014.5
20240614095610 21 331 6.4 8.0 0.00 0.00 0.00 74 1014.5
20240614095109 21 285 14.5 16.1 0.00 0.00 0.00 72 1014.3
20240614094609 21 290 3.2 3.2 0.00 0.00 0.00 72 1014.5
20240614094107 22 301 3.2 4.8 0.00 0.00 0.00 68 1014.1
20240614093605 22 289 3.2 3.2 0.00 0.00 0.00 66 1013.9
20240614093103 22 235 1.6 3.2 0.00 0.00 0.00 66 1014.0
20240614092600 22 265 0.0 1.6 0.00 0.00 0.00 66 1014.0
20240614092100 22 299 3.2 3.2 0.00 0.00 0.00 65 1014.0
20240614091559 22 290 1.6 4.8 0.00 0.00 0.00 65 1013.8
20240614091059 22 267 0.0 1.6 0.00 0.00 0.00 65 1013.8
20240614090556 22 244 0.0 1.6 0.00 0.00 0.00 65 1013.8
20240614090056 22 285 1.6 3.2 0.00 0.00 0.00 64 1013.9
20240614085555 22 271 1.6 8.0 0.00 0.00 0.00 64 1014.0
20240614085054 22 296 4.8 8.0 0.00 0.00 0.00 64 1014.0
20240614084552 22 281 1.6 3.2 0.00 0.00 0.00 64 1014.1
20240614084052 22 274 1.6 4.8 0.00 0.00 0.00 64 1014.1
20240614083549 22 236 1.6 3.2 0.00 0.00 0.00 65 1014.2
20240614083048 22 227 1.6 3.2 0.00 0.00 0.00 64 1014.1
20240614082547 22 259 0.0 1.6 0.00 0.00 0.00 64 1014.1
20240614082045 23 282 1.6 4.8 0.00 0.00 0.00 63 1014.4
20240614081543 23 305 1.6 3.2 0.00 0.00 0.00 63 1014.4
20240614081043 23 272 0.0 3.2 0.00 0.00 0.00 62 1014.1
20240614080541 23 263 4.8 4.8 0.00 0.00 0.00 62 1014.1
20240614080040 23 283 4.8 9.7 0.00 0.00 0.00 61 1014.1
20240614075539 23 286 3.2 9.7 0.00 0.00 0.00 61 1014.1
20240614075038 23 259 0.0 8.0 0.00 0.00 0.00 61 1014.3
20240614074536 23 251 4.8 9.7 0.00 0.00 0.00 61 1014.3
20240614074034 23 258 8.0 9.7 0.00 0.00 0.00 61 1014.3
20240614073533 23 225 0.0 3.2 0.00 0.00 0.00 63 1014.3
20240614073031 23 275 1.6 4.8 0.00 0.00 0.00 63 1013.9
20240614072531 22 246 1.6 3.2 0.00 0.00 0.00 63 1013.8
20240614072029 22 304 3.2 3.2 0.00 0.00 0.00 63 1013.9
20240614071528 22 278 0.0 1.6 0.00 0.00 0.00 64 1013.8
20240614071028 22 265 3.2 4.8 0.00 0.00 0.00 65 1013.8
20240614070526 22 259 3.2 4.8 0.00 0.00 0.00 65 1013.7
20240614070026 22 255 1.6 3.2 0.00 0.00 0.00 65 1013.6
20240614065525 22 282 1.6 3.2 0.00 0.00 0.00 65 1013.6
20240614065026 22 293 1.6 3.2 0.00 0.00 0.00 64 1013.5
20240614064522 22 237 3.2 3.2 0.00 0.00 0.00 64 1013.4
20240614064021 22 242 1.6 1.6 0.00 0.00 0.00 64 1013.4
20240614063520 22 251 0.0 3.2 0.00 0.00 0.00 64 1013.4
20240614063019 23 213 1.6 3.2 0.00 0.00 0.00 63 1013.5
20240614062517 23 252 0.0 3.2 0.00 0.00 0.00 63 1013.8
20240614062016 22 227 4.8 4.8 0.00 0.00 0.00 63 1013.8
20240614061512 23 257 1.6 3.2 0.00 0.00 0.00 63 1013.7
20240614061010 23 238 1.6 3.2 0.00 0.00 0.00 63 1013.6
20240614060509 23 186 4.8 4.8 0.00 0.00 0.00 63 1013.7
20240614060006 23 226 3.2 3.2 0.00 0.00 0.00 63 1013.9
20240614055505 23 224 0.0 1.6 0.00 0.00 0.00 63 1014.0
20240614055004 23 224 3.2 4.8 0.00 0.00 0.00 62 1014.1
20240614054501 23 220 0.0 3.2 0.00 0.00 0.00 63 1014.1
20240614054001 23 237 1.6 3.2 0.00 0.00 0.00 63 1014.0
20240614053459 23 206 3.2 4.8 0.00 0.00 0.00 63 1014.0
20240614052958 23 211 3.2 8.0 0.00 0.00 0.00 63 1014.1
20240614052456 23 227 1.6 3.2 0.00 0.00 0.00 62 1014.2
20240614051956 23 202 1.6 4.8 0.00 0.00 0.00 63 1014.1
20240614051454 23 230 1.6 4.8 0.00 0.00 0.00 62 1014.3
20240614050953 23 229 1.6 4.8 0.00 0.00 0.00 62 1014.2
20240614050453 23 231 3.2 3.2 0.00 0.00 0.00 62 1014.3
20240614045951 23 222 1.6 3.2 0.00 0.00 0.00 62 1014.4
20240614045449 23 223 1.6 3.2 0.00 0.00 0.00 62 1014.4
20240614044948 23 226 1.6 4.8 0.00 0.00 0.00 61 1014.4
20240614044447 23 213 4.8 4.8 0.00 0.00 0.00 61 1014.3
20240614043948 23 229 1.6 1.6 0.00 0.00 0.00 62 1014.5
20240614043446 23 244 1.6 3.2 0.00 0.00 0.00 62 1014.5
20240614042943 23 230 1.6 1.6 0.00 0.00 0.00 61 1014.7
20240614042442 23 240 0.0 1.6 0.00 0.00 0.00 62 1014.8
20240614041940 23 221 1.6 3.2 0.00 0.00 0.00 62 1014.8
20240614041437 22 246 0.0 1.6 0.00 0.00 0.00 67 1014.8
20240614040935 21 246 0.0 0.0 0.00 0.00 0.00 68 1014.8
20240614040435 21 243 0.0 1.6 0.00 0.00 0.00 74 1014.9
20240614035935 21 248 0.0 0.0 0.00 0.00 0.00 77 1014.9
20240614035434 22 265 0.0 0.0 0.00 0.00 0.00 77 1014.9
20240614034933 22 266 0.0 0.0 0.00 0.00 0.00 69 1014.7
20240614034432 22 266 0.0 0.0 0.00 0.00 0.00 66 1014.7
20240614033931 22 253 0.0 1.6 0.00 0.00 0.00 67 1014.7
20240614033430 22 245 0.0 0.0 0.00 0.00 0.00 68 1014.4
20240614032928 23 245 0.0 0.0 0.00 0.00 0.00 67 1014.3
20240614032427 23 243 0.0 1.6 0.00 0.00 0.00 65 1014.2
20240614031926 23 300 0.0 0.0 0.00 0.00 0.00 61 1014.1
20240614031425 24 305 0.0 1.6 0.00 0.00 0.00 60 1014.0
20240614030924 24 302 3.2 4.8 0.00 0.00 0.00 59 1014.0
20240614030422 24 262 1.6 4.8 0.00 0.00 0.00 60 1013.3
20240614025920 25 235 4.8 8.0 0.00 0.00 0.00 60 1013.2
20240614025419 25 175 4.8 8.0 0.00 0.00 0.00 60 1012.9
20240614024917 25 194 3.2 4.8 0.00 0.00 0.00 58 1013.7
20240614024416 25 194 3.2 4.8 0.00 0.00 0.00 57 1014.1
20240614023915 25 196 3.2 3.2 0.00 0.00 0.00 57 1014.3
20240614023414 25 223 3.2 4.8 0.00 0.00 0.00 55 1014.7
20240614022912 25 220 1.6 3.2 0.00 0.00 0.00 55 1014.6
20240614022411 25 213 1.6 3.2 0.00 0.00 0.00 55 1014.6
20240614021910 25 223 6.4 8.0 0.00 0.00 0.00 53 1014.8
20240614021409 25 221 1.6 4.8 0.00 0.00 0.00 53 1015.0
20240614020907 25 220 1.6 1.6 0.00 0.00 0.00 53 1015.3
20240614020405 25 237 0.0 4.8 0.00 0.00 0.00 53 1015.2
20240614015903 26 240 1.6 1.6 0.00 0.00 0.00 53 1015.1
20240614015401 26 235 0.0 3.2 0.00 0.00 0.00 53 1015.4
20240614014901 25 236 0.0 1.6 0.00 0.00 0.00 54 1015.3
20240614014358 25 255 1.6 4.8 0.00 0.00 0.00 54 1015.5
20240614013858 25 237 0.0 0.0 0.00 0.00 0.00 55 1015.4
20240614013357 25 237 0.0 0.0 0.00 0.00 0.00 53 1015.2
20240614012856 25 237 0.0 1.6 0.00 0.00 0.00 53 1014.9
20240614012355 26 235 0.0 0.0 0.00 0.00 0.00 52 1015.0
20240614011855 26 227 0.0 1.6 0.00 0.00 0.00 51 1015.0
20240614011353 26 234 0.0 1.6 0.00 0.00 0.00 51 1015.0
20240614010852 26 224 0.0 1.6 0.00 0.00 0.00 50 1015.0
20240614010350 27 221 1.6 3.2 0.00 0.00 0.00 50 1015.1
20240614005848 26 233 1.6 1.6 0.00 0.00 0.00 50 1015.0
20240614005348 27 243 1.6 1.6 0.00 0.00 0.00 50 1015.2
20240614004846 27 251 0.0 1.6 0.00 0.00 0.00 50 1015.2
20240614004345 27 219 3.2 3.2 0.00 0.00 0.00 49 1014.9
20240614003843 27 245 4.8 8.0 0.00 0.00 0.00 48 1014.8
20240614003340 27 229 1.6 3.2 0.00 0.00 0.00 48 1014.9
20240614002839 27 201 8.0 9.7 0.00 0.00 0.00 47 1014.7
20240614002336 27 225 3.2 4.8 0.00 0.00 0.00 48 1015.0
20240614001834 27 227 3.2 4.8 0.00 0.00 0.00 48 1014.9
20240614001333 27 237 1.6 4.8 0.00 0.00 0.00 48 1015.0
20240614000832 27 240 3.2 4.8 0.00 0.00 0.00 47 1015.0
20240614000328 27 254 1.6 8.0 0.00 0.00 0.00 46 1014.7
20240613235827 28 245 1.6 9.7 0.00 0.00 0.00 46 1015.0
20240613235326 28 264 1.6 8.0 0.00 0.00 0.00 46 1015.0
20240613234825 28 205 4.8 8.0 0.00 0.00 0.00 45 1015.1
20240613234325 28 231 4.8 11.3 0.00 0.00 0.00 45 1015.1
20240613233823 28 199 8.0 14.5 0.00 0.00 0.00 44 1015.0
20240613233322 28 158 1.6 11.3 0.00 0.00 0.00 44 1015.3
20240613232820 28 214 4.8 8.0 0.00 0.00 0.00 45 1015.2
20240613232320 28 180 6.4 8.0 0.00 0.00 0.00 45 1015.1
20240613231818 28 217 6.4 9.7 0.00 0.00 0.00 44 1014.9
20240613231315 28 211 8.0 11.3 0.00 0.00 0.00 45 1014.8
20240613230814 29 193 3.2 8.0 0.00 0.00 0.00 43 1014.7
20240613230312 29 255 1.6 8.0 0.00 0.00 0.00 42 1014.3
20240613225810 29 273 3.2 11.3 0.00 0.00 0.00 43 1014.2
20240613225308 29 256 8.0 11.3 0.00 0.00 0.00 43 1014.3
20240613224800 29 216 4.8 16.1 0.00 0.00 0.00 41 1014.1
20240613224252 29 218 4.8 11.3 0.00 0.00 0.00 40 1014.1
20240613223751 29 256 8.0 11.3 0.00 0.00 0.00 40 1014.1
20240613223250 29 233 3.2 4.8 0.00 0.00 0.00 41 1014.1
20240613222749 29 237 9.7 12.9 0.00 0.00 0.00 41 1014.0
20240613222248 29 257 4.8 11.3 0.00 0.00 0.00 39 1014.2
20240613221746 30 124 9.7 16.1 0.00 0.00 0.00 39 1014.3
20240613221245 29 222 3.2 11.3 0.00 0.00 0.00 42 1014.3
20240613220743 29 219 6.4 12.9 0.00 0.00 0.00 40 1014.4
20240613220241 29 228 9.7 12.9 0.00 0.00 0.00 41 1014.2
20240613215740 29 236 14.5 17.7 0.00 0.00 0.00 40 1014.3
20240613215239 28 167 1.6 9.7 0.00 0.00 0.00 42 1014.1
20240613214738 29 234 4.8 12.9 0.00 0.00 0.00 41 1014.5
20240613214237 29 272 4.8 11.3 0.00 0.00 0.00 41 1014.2
20240613213735 28 283 3.2 9.7 0.00 0.00 0.00 41 1014.5
20240613213234 29 236 6.4 12.9 0.00 0.00 0.00 42 1014.6
20240613212734 29 215 4.8 12.9 0.00 0.00 0.00 42 1014.8
20240613212232 28 242 3.2 9.7 0.00 0.00 0.00 44 1014.7
20240613211732 28 214 4.8 14.5 0.00 0.00 0.00 41 1014.8
20240613211230 28 253 3.2 12.9 0.00 0.00 0.00 43 1014.6
20240613210729 28 245 9.7 17.7 0.00 0.00 0.00 42 1014.9
20240613210229 28 164 6.4 11.3 0.00 0.00 0.00 44 1014.9
20240613205726 29 249 9.7 14.5 0.00 0.00 0.00 41 1014.9
20240613205224 29 189 1.6 16.1 0.00 0.00 0.00 41 1015.0
20240613204722 28 317 3.2 8.0 0.00 0.00 0.00 41 1014.9
20240613204221 29 243 8.0 9.7 0.00 0.00 0.00 41 1015.2
20240613203720 28 280 3.2 9.7 0.00 0.00 0.00 45 1015.3
20240613203218 28 221 6.4 12.9 0.00 0.00 0.00 43 1015.2
20240613202716 29 225 6.4 22.5 0.00 0.00 0.00 42 1015.3
20240613202215 29 282 6.4 11.3 0.00 0.00 0.00 42 1015.3
20240613201714 28 251 6.4 12.9 0.00 0.00 0.00 43 1015.1
20240613201213 29 226 8.0 17.7 0.00 0.00 0.00 42 1015.2
20240613200712 28 274 6.4 14.5 0.00 0.00 0.00 43 1015.4
20240613200210 28 246 3.2 9.7 0.00 0.00 0.00 44 1015.3
20240613195708 28 161 8.0 12.9 0.00 0.00 0.00 41 1015.4
20240613195206 28 228 3.2 8.0 0.00 0.00 0.00 43 1015.4
20240613194705 28 241 3.2 12.9 0.00 0.00 0.00 42 1015.7
20240613194203 28 236 1.6 9.7 0.00 0.00 0.00 44 1015.9
20240613193702 28 189 4.8 12.9 0.00 0.00 0.00 44 1015.9
20240613193202 27 186 8.0 11.3 0.00 0.00 0.00 45 1015.9
20240613192700 27 215 4.8 9.7 0.00 0.00 0.00 44 1015.8
20240613192159 27 187 4.8 8.0 0.00 0.00 0.00 45 1015.8
20240613191658 28 214 6.4 9.7 0.00 0.00 0.00 45 1015.8
20240613191157 27 217 9.7 17.7 0.00 0.00 0.00 43 1016.0
20240613190656 28 206 14.5 22.5 0.00 0.00 0.00 43 1015.7
20240613190154 27 233 4.8 12.9 0.00 0.00 0.00 43 1016.0
20240613185653 28 197 8.0 16.1 0.00 0.00 0.00 42 1015.9
20240613185153 27 215 4.8 12.9 0.00 0.00 0.00 44 1016.0
20240613184652 27 246 8.0 9.7 0.00 0.00 0.00 43 1016.1
20240613184150 28 223 9.7 14.5 0.00 0.00 0.00 43 1015.9
20240613183649 27 214 8.0 14.5 0.00 0.00 0.00 42 1016.2
20240613183148 27 261 6.4 9.7 0.00 0.00 0.00 44 1016.2
20240613182647 27 244 4.8 11.3 0.00 0.00 0.00 48 1016.2
20240613182146 27 158 3.2 9.7 0.00 0.00 0.00 45 1016.1
20240613181645 27 201 8.0 9.7 0.00 0.00 0.00 43 1016.1
20240613181144 27 303 8.0 11.3 0.00 0.00 0.00 44 1016.1
20240613180642 27 177 8.0 11.3 0.00 0.00 0.00 43 1016.1
20240613180140 27 232 8.0 12.9 0.00 0.00 0.00 43 1016.2
20240613175639 27 214 11.3 16.1 0.00 0.00 0.00 43 1016.2
20240613175137 27 210 6.4 9.7 0.00 0.00 0.00 45 1016.0
20240613174636 27 230 3.2 9.7 0.00 0.00 0.00 49 1016.1
20240613174134 26 202 4.8 8.0 0.00 0.00 0.00 45 1016.1
20240613173634 27 237 8.0 11.3 0.00 0.00 0.00 45 1016.1
20240613173132 27 215 8.0 12.9 0.00 0.00 0.00 46 1016.2
20240613172631 27 187 8.0 9.7 0.00 0.00 0.00 44 1016.1
20240613172130 26 268 4.8 11.3 0.00 0.00 0.00 47 1016.2
20240613171629 27 238 4.8 16.1 0.00 0.00 0.00 48 1016.1
20240613171128 26 215 1.6 8.0 0.00 0.00 0.00 47 1016.2
20240613170626 26 205 6.4 11.3 0.00 0.00 0.00 46 1016.3
20240613170125 26 282 1.6 8.0 0.00 0.00 0.00 47 1016.3
20240613165624 26 235 6.4 12.9 0.00 0.00 0.00 47 1016.2
20240613165122 26 258 8.0 14.5 0.00 0.00 0.00 47 1016.2
20240613164622 26 279 4.8 8.0 0.00 0.00 0.00 51 1016.4
20240613164121 26 221 4.8 8.0 0.00 0.00 0.00 49 1016.7
20240613163620 26 227 8.0 12.9 0.00 0.00 0.00 46 1016.5
20240613163119 26 235 4.8 11.3 0.00 0.00 0.00 49 1016.8
20240613162611 25 212 1.6 12.9 0.00 0.00 0.00 49 1016.9
20240613162110 26 248 8.0 16.1 0.00 0.00 0.00 47 1017.0
20240613161609 25 297 3.2 4.8 0.00 0.00 0.00 50 1017.1
20240613161108 25 197 6.4 12.9 0.00 0.00 0.00 48 1017.4
20240613160607 24 236 3.2 3.2 0.00 0.00 0.00 50 1017.3
20240613160105 25 228 3.2 4.8 0.00 0.00 0.00 50 1017.3
20240613155604 25 237 9.7 12.9 0.00 0.00 0.00 48 1017.4
20240613155103 25 243 8.0 11.3 0.00 0.00 0.00 49 1017.4
20240613154602 24 253 1.6 4.8 0.00 0.00 0.00 55 1017.7
20240613154100 24 233 1.6 4.8 0.00 0.00 0.00 53 1017.7
20240613153559 24 246 3.2 8.0 0.00 0.00 0.00 54 1017.7
20240613153058 24 228 4.8 9.7 0.00 0.00 0.00 54 1017.7
20240613152556 23 236 3.2 9.7 0.00 0.00 0.00 53 1017.6
20240613152055 23 250 3.2 4.8 0.00 0.00 0.00 56 1017.5
20240613151554 23 220 4.8 8.0 0.00 0.00 0.00 57 1017.5
20240613151053 23 203 6.4 11.3 0.00 0.00 0.00 59 1017.5
20240613150552 23 179 4.8 9.7 0.00 0.00 0.00 59 1017.7
20240613150050 22 219 4.8 9.7 0.00 0.00 0.00 60 1017.6
20240613145549 22 208 8.0 9.7 0.00 0.00 0.00 60 1017.8
20240613145049 22 184 6.4 9.7 0.00 0.00 0.00 61 1017.6
20240613144549 22 186 8.0 9.7 0.00 0.00 0.00 62 1017.7
20240613144048 22 226 6.4 11.3 0.00 0.00 0.00 60 1017.7
20240613143547 21 201 6.4 8.0 0.00 0.00 0.00 62 1017.6
20240613143045 21 176 6.4 9.7 0.00 0.00 0.00 63 1017.7
20240613142544 22 223 4.8 8.0 0.00 0.00 0.00 62 1017.6
20240613142043 22 252 3.2 8.0 0.00 0.00 0.00 63 1017.6
20240613141540 22 210 4.8 4.8 0.00 0.00 0.00 62 1017.8
20240613141038 22 236 3.2 4.8 0.00 0.00 0.00 62 1017.8
20240613140538 22 242 1.6 3.2 0.00 0.00 0.00 62 1017.7
20240613140036 22 216 3.2 11.3 0.00 0.00 0.00 60 1017.9
20240613135535 22 233 1.6 3.2 0.00 0.00 0.00 61 1017.9
20240613135035 22 233 4.8 8.0 0.00 0.00 0.00 60 1017.7
20240613134533 22 256 3.2 8.0 0.00 0.00 0.00 60 1017.8
20240613134032 22 229 3.2 4.8 0.00 0.00 0.00 60 1017.8